Japan Airlines Virtual Airport Information Service

Naha Airport

ICAO: ROAH Country: Japan
Latitude: 26.1958 Longitude: 127.646
Latest Arrival : JAL2081 (RJOO-ROAH) Latest Departure : JALJUMP (ROAH-RJAA)


WX CaptureLIVE
Data provided by noaa.gov | Fetched at 14:04:09

METAR : ROAH 231330Z 06019KT 9999 FEW021 BKN028 21/17 Q1006

TAF : ROAH 231106Z 2312/2418 04016KT 9999 FEW015 BKN025 TEMPO 2312/2318 05022G33KT


Runway Data for ROAH
Data provided by openaviationdata.com

Runway ID Mag Var Hdg Length Elevation Surface ILS Freq ILS Id ILS Slope
18 -4 181° 9872 ft 11 ft Asphalt -- -- --
36 -4 9872 ft 11 ft Asphalt 110.3 IOK 2

Naha Airport, Japan
Use only for reference purposes



Not for navigational purposes.